Portada
METAR-TAF:

METAR-TAF

Aeroports :

Sidney-Richland Municipal Airport

Sidney, Montana, Estats Units d'Amèrica

latitud: 47-42N, longitud: 104-12W, altitud: 605 m

Observació

L'informe es va fer fa 15 minuts, a les 15:56 UTC
Vent 17 kt del Oest/Nord-Oest
Temperatura 1°C
Humitat 69%
Pressió 1015 hPa
Visibilitat: 16.1 km
Cel clar

METAR: KSDY 281556Z AUTO 29017KT 10SM CLR 01/M04 A2997 RMK AO2 SLP545 T00061039 FZRANO

Hora: 09:11 (16:11 UTC)

Pronòstic

L'informe es va fer fa 4 hores i 40 minuts, a les 11:31 UTC
Pronòstic vàlid del 28 a les 12 UTC al 29 a les 12 UTC
Vent 6 kt amb direcció variable
Visibilitat: 10 km
Núvols disperses a una alçada de 300 ft
A partir de les 29 a les 0400 UTC
Vent kt del Nord
Visibilitat: 10 km
Cel ennuvolat a una alçada de 3000 ft
A partir de les 29 a les 0800 UTC
Vent kt del Nord
Visibilitat: 8.0 km
Cel ennuvolat a una alçada de 2800 ft
boirina

TAF: KSDY 281131Z 2812/2912 VRB06KT P6SM SCT003 FM290400 00000KT P6SM BKN030 FM290800 00000KT 5SM BR BKN028

Observacions i pronòstics meteorològics de més de 4000 aeroports (METAR i TAF).

Les estacions disponibles són els punts grocs i vermells al mapa.

Posi el ratolí al punt desitjat per veure el nom de l'estació.

Feu clic per veure les observacions i els pronòstics meteorològics.

Per canviar el mapa: feu clic els botons verds amb una creu de color negre per apropar; al botó verd amb un guió per allunyar la imatge; o en les fletxes verdes per a mapes adjacents.


METAR-TAF: